sensor_id;sensor_type;location;lat;lon;timestamp;temperature;humidity
49711;DHT22;35602;44.534;18.696;2023-05-29T00:03:49;23.80;67.00
49711;DHT22;35602;44.534;18.696;2023-05-29T00:08:50;23.80;67.60
49711;DHT22;35602;44.534;18.696;2023-05-29T00:13:51;23.80;67.00
49711;DHT22;35602;44.534;18.696;2023-05-29T00:18:52;23.80;67.00
49711;DHT22;35602;44.534;18.696;2023-05-29T00:23:54;23.80;67.00
49711;DHT22;35602;44.534;18.696;2023-05-29T00:28:55;23.80;66.90
49711;DHT22;35602;44.534;18.696;2023-05-29T00:33:55;23.80;67.00
49711;DHT22;35602;44.534;18.696;2023-05-29T00:38:56;23.80;67.00
49711;DHT22;35602;44.534;18.696;2023-05-29T00:43:57;23.80;67.10
49711;DHT22;35602;44.534;18.696;2023-05-29T00:49:04;23.80;67.00
49711;DHT22;35602;44.534;18.696;2023-05-29T00:54:11;23.80;67.00
49711;DHT22;35602;44.534;18.696;2023-05-29T00:59:12;23.80;67.00
49711;DHT22;35602;44.534;18.696;2023-05-29T01:04:13;23.80;67.00
49711;DHT22;35602;44.534;18.696;2023-05-29T01:09:15;23.80;67.00
49711;DHT22;35602;44.534;18.696;2023-05-29T01:14:26;23.80;67.00
49711;DHT22;35602;44.534;18.696;2023-05-29T01:27:47;23.80;67.00
49711;DHT22;35602;44.534;18.696;2023-05-29T01:32:50;23.80;67.00
49711;DHT22;35602;44.534;18.696;2023-05-29T01:37:51;23.80;67.10
49711;DHT22;35602;44.534;18.696;2023-05-29T01:42:52;23.80;67.10
49711;DHT22;35602;44.534;18.696;2023-05-29T01:47:57;23.80;67.00
49711;DHT22;35602;44.534;18.696;2023-05-29T01:52:58;23.80;67.00
49711;DHT22;35602;44.534;18.696;2023-05-29T01:57:59;23.80;67.00
49711;DHT22;35602;44.534;18.696;2023-05-29T02:03:01;23.80;67.00
49711;DHT22;35602;44.534;18.696;2023-05-29T02:08:02;23.80;67.00
49711;DHT22;35602;44.534;18.696;2023-05-29T02:13:03;23.80;67.00
49711;DHT22;35602;44.534;18.696;2023-05-29T02:18:04;23.80;67.00
49711;DHT22;35602;44.534;18.696;2023-05-29T02:23:05;23.80;67.00
49711;DHT22;35602;44.534;18.696;2023-05-29T02:28:06;23.80;67.00
49711;DHT22;35602;44.534;18.696;2023-05-29T02:33:07;23.70;67.00
49711;DHT22;35602;44.534;18.696;2023-05-29T02:38:09;23.80;67.10
49711;DHT22;35602;44.534;18.696;2023-05-29T02:43:12;23.80;67.10
49711;DHT22;35602;44.534;18.696;2023-05-29T02:48:13;23.70;66.90
49711;DHT22;35602;44.534;18.696;2023-05-29T02:53:14;23.70;66.90
49711;DHT22;35602;44.534;18.696;2023-05-29T02:58:15;23.70;67.00
49711;DHT22;35602;44.534;18.696;2023-05-29T03:03:16;23.70;67.60
49711;DHT22;35602;44.534;18.696;2023-05-29T03:08:17;23.70;67.00
49711;DHT22;35602;44.534;18.696;2023-05-29T03:13:18;23.70;67.00
49711;DHT22;35602;44.534;18.696;2023-05-29T03:18:19;23.70;67.00
49711;DHT22;35602;44.534;18.696;2023-05-29T03:23:20;23.70;67.00
49711;DHT22;35602;44.534;18.696;2023-05-29T03:28:21;23.70;67.00
49711;DHT22;35602;44.534;18.696;2023-05-29T03:33:22;23.80;67.10
49711;DHT22;35602;44.534;18.696;2023-05-29T03:38:23;23.70;67.10
49711;DHT22;35602;44.534;18.696;2023-05-29T03:43:24;23.70;67.10
49711;DHT22;35602;44.534;18.696;2023-05-29T03:48:25;23.70;67.00
49711;DHT22;35602;44.534;18.696;2023-05-29T03:53:26;23.70;67.00
49711;DHT22;35602;44.534;18.696;2023-05-29T03:58:27;23.70;67.60
49711;DHT22;35602;44.534;18.696;2023-05-29T04:03:28;23.70;66.90
49711;DHT22;35602;44.534;18.696;2023-05-29T04:08:32;23.70;66.90
49711;DHT22;35602;44.534;18.696;2023-05-29T04:13:34;23.70;66.50
49711;DHT22;35602;44.534;18.696;2023-05-29T04:18:35;23.70;66.80
49711;DHT22;35602;44.534;18.696;2023-05-29T04:23:35;23.70;66.80
49711;DHT22;35602;44.534;18.696;2023-05-29T04:28:36;23.70;66.70
49711;DHT22;35602;44.534;18.696;2023-05-29T04:33:38;23.70;67.40
49711;DHT22;35602;44.534;18.696;2023-05-29T04:38:38;23.70;66.70
49711;DHT22;35602;44.534;18.696;2023-05-29T04:43:40;23.70;66.60
49711;DHT22;35602;44.534;18.696;2023-05-29T04:48:41;23.70;66.50
49711;DHT22;35602;44.534;18.696;2023-05-29T04:53:41;23.70;66.50
49711;DHT22;35602;44.534;18.696;2023-05-29T04:58:42;23.70;66.50
49711;DHT22;35602;44.534;18.696;2023-05-29T05:03:43;23.70;66.40
49711;DHT22;35602;44.534;18.696;2023-05-29T05:08:46;23.70;66.30
49711;DHT22;35602;44.534;18.696;2023-05-29T05:13:47;23.70;66.30
49711;DHT22;35602;44.534;18.696;2023-05-29T05:18:47;23.70;66.50
49711;DHT22;35602;44.534;18.696;2023-05-29T05:23:48;23.70;66.20
49711;DHT22;35602;44.534;18.696;2023-05-29T05:28:49;23.70;66.10
49711;DHT22;35602;44.534;18.696;2023-05-29T05:33:50;23.60;66.10
49711;DHT22;35602;44.534;18.696;2023-05-29T05:38:51;23.70;66.00
49711;DHT22;35602;44.534;18.696;2023-05-29T05:43:52;23.70;66.00
49711;DHT22;35602;44.534;18.696;2023-05-29T05:48:53;23.70;65.90
49711;DHT22;35602;44.534;18.696;2023-05-29T05:53:57;23.60;65.80
49711;DHT22;35602;44.534;18.696;2023-05-29T05:58:58;23.70;65.90
49711;DHT22;35602;44.534;18.696;2023-05-29T06:03:59;23.60;65.70
49711;DHT22;35602;44.534;18.696;2023-05-29T06:09:00;23.60;65.70
49711;DHT22;35602;44.534;18.696;2023-05-29T06:14:03;23.60;65.70
49711;DHT22;35602;44.534;18.696;2023-05-29T06:19:04;23.60;65.70
49711;DHT22;35602;44.534;18.696;2023-05-29T06:24:05;23.60;65.70
49711;DHT22;35602;44.534;18.696;2023-05-29T06:29:06;23.60;65.70
49711;DHT22;35602;44.534;18.696;2023-05-29T06:34:07;23.60;65.60
49711;DHT22;35602;44.534;18.696;2023-05-29T06:39:08;23.60;65.70
49711;DHT22;35602;44.534;18.696;2023-05-29T06:44:09;23.60;65.60
49711;DHT22;35602;44.534;18.696;2023-05-29T06:49:10;23.60;65.50
49711;DHT22;35602;44.534;18.696;2023-05-29T06:54:10;23.60;65.50
49711;DHT22;35602;44.534;18.696;2023-05-29T06:59:11;23.70;66.30
49711;DHT22;35602;44.534;18.696;2023-05-29T07:04:12;23.60;65.50
49711;DHT22;35602;44.534;18.696;2023-05-29T07:09:13;23.60;65.50
49711;DHT22;35602;44.534;18.696;2023-05-29T07:14:14;23.60;65.50
49711;DHT22;35602;44.534;18.696;2023-05-29T07:19:16;23.60;65.50
49711;DHT22;35602;44.534;18.696;2023-05-29T07:24:17;23.60;65.50
49711;DHT22;35602;44.534;18.696;2023-05-29T07:29:18;23.70;65.40
49711;DHT22;35602;44.534;18.696;2023-05-29T07:34:21;23.70;65.50
49711;DHT22;35602;44.534;18.696;2023-05-29T08:21:01;23.60;65.40
49711;DHT22;35602;44.534;18.696;2023-05-29T08:26:02;23.70;66.00
49711;DHT22;35602;44.534;18.696;2023-05-29T08:31:04;23.70;65.40
49711;DHT22;35602;44.534;18.696;2023-05-29T08:36:04;23.70;65.40
49711;DHT22;35602;44.534;18.696;2023-05-29T08:41:07;23.70;65.40
49711;DHT22;35602;44.534;18.696;2023-05-29T09:04:00;23.70;65.50
49711;DHT22;35602;44.534;18.696;2023-05-29T09:09:01;23.70;65.40
49711;DHT22;35602;44.534;18.696;2023-05-29T09:14:02;23.70;65.40
49711;DHT22;35602;44.534;18.696;2023-05-29T09:19:07;23.70;65.40
49711;DHT22;35602;44.534;18.696;2023-05-29T09:24:07;23.70;65.40
49711;DHT22;35602;44.534;18.696;2023-05-29T09:29:09;23.70;65.40
49711;DHT22;35602;44.534;18.696;2023-05-29T09:34:13;23.70;65.50
49711;DHT22;35602;44.534;18.696;2023-05-29T09:39:13;23.70;65.50
49711;DHT22;35602;44.534;18.696;2023-05-29T09:44:16;23.70;65.60
49711;DHT22;35602;44.534;18.696;2023-05-29T09:49:22;23.70;65.60
49711;DHT22;35602;44.534;18.696;2023-05-29T09:54:23;23.70;65.60
49711;DHT22;35602;44.534;18.696;2023-05-29T09:59:25;23.70;65.60
49711;DHT22;35602;44.534;18.696;2023-05-29T10:04:26;23.70;65.60
49711;DHT22;35602;44.534;18.696;2023-05-29T10:09:27;23.80;65.80
49711;DHT22;35602;44.534;18.696;2023-05-29T10:14:31;23.80;66.10
49711;DHT22;35602;44.534;18.696;2023-05-29T10:19:36;23.80;66.30
49711;DHT22;35602;44.534;18.696;2023-05-29T10:24:37;23.80;66.60
49711;DHT22;35602;44.534;18.696;2023-05-29T10:29:50;23.80;66.70
49711;DHT22;35602;44.534;18.696;2023-05-29T10:35:25;23.80;67.30
49711;DHT22;35602;44.534;18.696;2023-05-29T10:40:28;23.80;66.70
49711;DHT22;35602;44.534;18.696;2023-05-29T10:46:11;23.80;66.70
49711;DHT22;35602;44.534;18.696;2023-05-29T10:51:29;23.80;66.70
49711;DHT22;35602;44.534;18.696;2023-05-29T10:56:33;23.80;66.60
49711;DHT22;35602;44.534;18.696;2023-05-29T11:01:38;23.80;66.60
49711;DHT22;35602;44.534;18.696;2023-05-29T11:06:43;24.00;67.00
49711;DHT22;35602;44.534;18.696;2023-05-29T11:11:44;23.90;67.30
49711;DHT22;35602;44.534;18.696;2023-05-29T11:16:48;24.00;67.70
49711;DHT22;35602;44.534;18.696;2023-05-29T11:22:07;24.00;68.10
49711;DHT22;35602;44.534;18.696;2023-05-29T11:27:10;24.00;68.00
49711;DHT22;35602;44.534;18.696;2023-05-29T11:32:14;24.00;68.10
49711;DHT22;35602;44.534;18.696;2023-05-29T11:37:17;24.00;68.20
49711;DHT22;35602;44.534;18.696;2023-05-29T11:42:18;24.00;68.30
49711;DHT22;35602;44.534;18.696;2023-05-29T11:47:18;24.00;68.50
49711;DHT22;35602;44.534;18.696;2023-05-29T11:52:20;24.00;68.70
49711;DHT22;35602;44.534;18.696;2023-05-29T11:57:23;24.00;68.70
49711;DHT22;35602;44.534;18.696;2023-05-29T12:02:25;24.00;69.00
49711;DHT22;35602;44.534;18.696;2023-05-29T12:07:28;24.10;69.10
49711;DHT22;35602;44.534;18.696;2023-05-29T12:12:29;24.10;69.00
49711;DHT22;35602;44.534;18.696;2023-05-29T12:17:33;24.10;69.20
49711;DHT22;35602;44.534;18.696;2023-05-29T12:22:37;24.10;69.20
49711;DHT22;35602;44.534;18.696;2023-05-29T12:27:39;24.10;69.20
49711;DHT22;35602;44.534;18.696;2023-05-29T12:32:51;24.10;69.20
49711;DHT22;35602;44.534;18.696;2023-05-29T12:38:00;24.10;69.10
49711;DHT22;35602;44.534;18.696;2023-05-29T12:43:03;24.10;69.40
49711;DHT22;35602;44.534;18.696;2023-05-29T12:48:05;24.20;69.40
49711;DHT22;35602;44.534;18.696;2023-05-29T12:53:12;24.20;69.40
49711;DHT22;35602;44.534;18.696;2023-05-29T12:58:15;24.20;69.30
49711;DHT22;35602;44.534;18.696;2023-05-29T13:03:16;24.20;69.40
49711;DHT22;35602;44.534;18.696;2023-05-29T13:08:17;24.30;69.20
49711;DHT22;35602;44.534;18.696;2023-05-29T13:13:18;24.30;69.30
49711;DHT22;35602;44.534;18.696;2023-05-29T13:18:19;24.30;69.30
49711;DHT22;35602;44.534;18.696;2023-05-29T13:23:20;24.30;69.40
49711;DHT22;35602;44.534;18.696;2023-05-29T13:28:21;24.30;69.40
49711;DHT22;35602;44.534;18.696;2023-05-29T13:33:22;24.40;69.40
49711;DHT22;35602;44.534;18.696;2023-05-29T13:38:23;24.30;69.40
49711;DHT22;35602;44.534;18.696;2023-05-29T13:43:25;24.20;69.50
49711;DHT22;35602;44.534;18.696;2023-05-29T13:48:26;24.10;69.70
49711;DHT22;35602;44.534;18.696;2023-05-29T13:53:27;24.10;69.70
49711;DHT22;35602;44.534;18.696;2023-05-29T13:58:28;24.10;69.70
49711;DHT22;35602;44.534;18.696;2023-05-29T14:03:28;24.00;70.20
49711;DHT22;35602;44.534;18.696;2023-05-29T14:08:29;24.00;69.60
49711;DHT22;35602;44.534;18.696;2023-05-29T14:13:30;24.00;69.60
49711;DHT22;35602;44.534;18.696;2023-05-29T14:18:31;24.00;69.50
49711;DHT22;35602;44.534;18.696;2023-05-29T14:23:31;24.00;69.50
49711;DHT22;35602;44.534;18.696;2023-05-29T14:28:35;24.00;69.60
49711;DHT22;35602;44.534;18.696;2023-05-29T14:33:37;24.00;69.30
49711;DHT22;35602;44.534;18.696;2023-05-29T14:38:38;24.10;69.30
49711;DHT22;35602;44.534;18.696;2023-05-29T14:43:42;24.10;69.20
49711;DHT22;35602;44.534;18.696;2023-05-29T14:48:43;24.10;69.10
49711;DHT22;35602;44.534;18.696;2023-05-29T14:53:44;24.10;69.10
49711;DHT22;35602;44.534;18.696;2023-05-29T14:58:46;24.10;68.90
49711;DHT22;35602;44.534;18.696;2023-05-29T15:03:48;24.10;69.10
49711;DHT22;35602;44.534;18.696;2023-05-29T15:08:49;24.00;69.10
49711;DHT22;35602;44.534;18.696;2023-05-29T15:13:51;24.00;69.30
49711;DHT22;35602;44.534;18.696;2023-05-29T15:18:52;24.00;69.30
49711;DHT22;35602;44.534;18.696;2023-05-29T15:23:53;24.00;69.40
49711;DHT22;35602;44.534;18.696;2023-05-29T15:28:53;24.00;69.30
49711;DHT22;35602;44.534;18.696;2023-05-29T15:33:54;24.00;69.30
49711;DHT22;35602;44.534;18.696;2023-05-29T15:38:55;24.00;69.30
49711;DHT22;35602;44.534;18.696;2023-05-29T15:43:56;23.90;69.20
49711;DHT22;35602;44.534;18.696;2023-05-29T15:48:57;24.00;69.90
49711;DHT22;35602;44.534;18.696;2023-05-29T15:53:59;24.00;69.90
49711;DHT22;35602;44.534;18.696;2023-05-29T15:58:59;24.00;69.20
49711;DHT22;35602;44.534;18.696;2023-05-29T16:04:00;24.00;69.10
49711;DHT22;35602;44.534;18.696;2023-05-29T16:09:03;24.00;69.20
49711;DHT22;35602;44.534;18.696;2023-05-29T16:14:05;24.00;69.10
49711;DHT22;35602;44.534;18.696;2023-05-29T16:19:06;23.90;69.10
49711;DHT22;35602;44.534;18.696;2023-05-29T16:24:07;24.00;69.10
49711;DHT22;35602;44.534;18.696;2023-05-29T16:29:08;24.00;69.10
49711;DHT22;35602;44.534;18.696;2023-05-29T16:34:08;24.00;69.10
49711;DHT22;35602;44.534;18.696;2023-05-29T16:39:09;23.90;69.00
49711;DHT22;35602;44.534;18.696;2023-05-29T16:44:11;24.00;69.00
49711;DHT22;35602;44.534;18.696;2023-05-29T16:49:12;24.00;69.00
49711;DHT22;35602;44.534;18.696;2023-05-29T16:54:13;23.90;69.00
49711;DHT22;35602;44.534;18.696;2023-05-29T16:59:14;24.00;69.00
49711;DHT22;35602;44.534;18.696;2023-05-29T17:04:16;24.00;69.00
49711;DHT22;35602;44.534;18.696;2023-05-29T17:09:17;23.90;69.00
49711;DHT22;35602;44.534;18.696;2023-05-29T17:14:19;23.90;69.00
49711;DHT22;35602;44.534;18.696;2023-05-29T17:19:19;23.90;68.90
49711;DHT22;35602;44.534;18.696;2023-05-29T17:24:20;23.90;69.00
49711;DHT22;35602;44.534;18.696;2023-05-29T17:29:21;24.00;68.90
49711;DHT22;35602;44.534;18.696;2023-05-29T17:34:22;24.00;68.90
49711;DHT22;35602;44.534;18.696;2023-05-29T17:39:23;24.00;69.00
49711;DHT22;35602;44.534;18.696;2023-05-29T17:44:25;24.00;68.90
49711;DHT22;35602;44.534;18.696;2023-05-29T17:49:26;23.90;68.80
49711;DHT22;35602;44.534;18.696;2023-05-29T17:54:27;23.90;68.80
49711;DHT22;35602;44.534;18.696;2023-05-29T17:59:33;23.90;68.80
49711;DHT22;35602;44.534;18.696;2023-05-29T18:04:36;23.90;68.80
49711;DHT22;35602;44.534;18.696;2023-05-29T18:09:37;23.90;68.70
49711;DHT22;35602;44.534;18.696;2023-05-29T18:14:38;23.90;68.70
49711;DHT22;35602;44.534;18.696;2023-05-29T18:19:39;23.90;68.70
49711;DHT22;35602;44.534;18.696;2023-05-29T18:24:41;23.90;68.70
49711;DHT22;35602;44.534;18.696;2023-05-29T18:29:41;23.90;68.70
49711;DHT22;35602;44.534;18.696;2023-05-29T18:34:42;23.90;68.70
49711;DHT22;35602;44.534;18.696;2023-05-29T18:39:43;23.90;68.70
49711;DHT22;35602;44.534;18.696;2023-05-29T18:44:44;23.90;68.70
49711;DHT22;35602;44.534;18.696;2023-05-29T18:49:45;23.90;68.70
49711;DHT22;35602;44.534;18.696;2023-05-29T18:54:46;23.90;68.70
49711;DHT22;35602;44.534;18.696;2023-05-29T18:59:47;23.90;68.70
49711;DHT22;35602;44.534;18.696;2023-05-29T19:04:53;23.90;68.70
49711;DHT22;35602;44.534;18.696;2023-05-29T19:09:55;23.90;68.60
49711;DHT22;35602;44.534;18.696;2023-05-29T19:14:55;23.90;68.60
49711;DHT22;35602;44.534;18.696;2023-05-29T19:19:57;23.90;68.60
49711;DHT22;35602;44.534;18.696;2023-05-29T19:24:59;23.90;68.60
49711;DHT22;35602;44.534;18.696;2023-05-29T19:30:01;23.90;68.60
49711;DHT22;35602;44.534;18.696;2023-05-29T19:35:02;23.90;68.60
49711;DHT22;35602;44.534;18.696;2023-05-29T19:40:07;23.90;68.60
49711;DHT22;35602;44.534;18.696;2023-05-29T19:45:10;23.90;68.50
49711;DHT22;35602;44.534;18.696;2023-05-29T19:50:11;23.90;68.50
49711;DHT22;35602;44.534;18.696;2023-05-29T19:55:14;23.90;68.50
49711;DHT22;35602;44.534;18.696;2023-05-29T20:00:16;23.90;68.50
49711;DHT22;35602;44.534;18.696;2023-05-29T20:05:17;23.90;68.50
49711;DHT22;35602;44.534;18.696;2023-05-29T20:10:18;23.90;68.40
49711;DHT22;35602;44.534;18.696;2023-05-29T20:15:19;23.90;68.40
49711;DHT22;35602;44.534;18.696;2023-05-29T20:20:20;23.90;68.40
49711;DHT22;35602;44.534;18.696;2023-05-29T20:25:21;23.90;68.40
49711;DHT22;35602;44.534;18.696;2023-05-29T20:30:24;23.90;68.40
49711;DHT22;35602;44.534;18.696;2023-05-29T20:35:24;23.90;68.30
49711;DHT22;35602;44.534;18.696;2023-05-29T20:40:26;23.90;68.30
49711;DHT22;35602;44.534;18.696;2023-05-29T20:45:27;23.90;68.30
49711;DHT22;35602;44.534;18.696;2023-05-29T20:50:27;23.90;68.40
49711;DHT22;35602;44.534;18.696;2023-05-29T20:55:28;23.90;68.20
49711;DHT22;35602;44.534;18.696;2023-05-29T21:00:29;23.90;68.30
49711;DHT22;35602;44.534;18.696;2023-05-29T21:05:30;23.80;68.20
49711;DHT22;35602;44.534;18.696;2023-05-29T21:10:31;23.90;68.20
49711;DHT22;35602;44.534;18.696;2023-05-29T21:15:32;23.90;68.20
49711;DHT22;35602;44.534;18.696;2023-05-29T21:20:33;23.90;68.10
49711;DHT22;35602;44.534;18.696;2023-05-29T21:25:34;23.80;68.10
49711;DHT22;35602;44.534;18.696;2023-05-29T21:30:34;23.80;68.20
49711;DHT22;35602;44.534;18.696;2023-05-29T21:41:43;23.80;68.10
49711;DHT22;35602;44.534;18.696;2023-05-29T21:46:44;23.90;68.20
49711;DHT22;35602;44.534;18.696;2023-05-29T21:51:45;23.90;68.10
49711;DHT22;35602;44.534;18.696;2023-05-29T21:56:46;23.90;68.10
49711;DHT22;35602;44.534;18.696;2023-05-29T22:01:48;23.90;68.10
49711;DHT22;35602;44.534;18.696;2023-05-29T22:06:49;23.90;68.20
49711;DHT22;35602;44.534;18.696;2023-05-29T22:11:53;23.80;68.10
49711;DHT22;35602;44.534;18.696;2023-05-29T22:16:54;23.80;68.10
49711;DHT22;35602;44.534;18.696;2023-05-29T22:21:55;23.80;68.10
49711;DHT22;35602;44.534;18.696;2023-05-29T22:26:56;23.80;68.10
49711;DHT22;35602;44.534;18.696;2023-05-29T22:31:56;23.90;68.10
49711;DHT22;35602;44.534;18.696;2023-05-29T22:36:57;23.90;68.10
49711;DHT22;35602;44.534;18.696;2023-05-29T22:41:58;23.80;68.10
49711;DHT22;35602;44.534;18.696;2023-05-29T22:46:59;23.80;68.10
49711;DHT22;35602;44.534;18.696;2023-05-29T22:52:00;23.80;68.10
49711;DHT22;35602;44.534;18.696;2023-05-29T22:57:01;23.80;68.10
49711;DHT22;35602;44.534;18.696;2023-05-29T23:02:04;23.90;68.10
49711;DHT22;35602;44.534;18.696;2023-05-29T23:07:05;23.90;68.20
49711;DHT22;35602;44.534;18.696;2023-05-29T23:12:06;23.80;68.00
49711;DHT22;35602;44.534;18.696;2023-05-29T23:17:09;23.90;68.10
49711;DHT22;35602;44.534;18.696;2023-05-29T23:22:11;23.90;68.10
49711;DHT22;35602;44.534;18.696;2023-05-29T23:27:12;23.90;68.10
49711;DHT22;35602;44.534;18.696;2023-05-29T23:32:12;23.90;68.10
49711;DHT22;35602;44.534;18.696;2023-05-29T23:37:13;23.80;68.10
49711;DHT22;35602;44.534;18.696;2023-05-29T23:42:15;23.90;68.10
49711;DHT22;35602;44.534;18.696;2023-05-29T23:47:16;23.90;68.00
49711;DHT22;35602;44.534;18.696;2023-05-29T23:52:17;23.90;68.10
49711;DHT22;35602;44.534;18.696;2023-05-29T23:57:18;23.90;68.00
